createdAt,value
2023-05-18T03:50:41.222Z,80.62
2023-05-18T05:58:32.110Z,68.41
2023-05-18T05:59:33.863Z,68.01
2023-05-18T06:00:32.168Z,66.57
2023-05-18T06:01:31.918Z,64.83
2023-05-18T06:02:31.959Z,66.78
2023-05-18T06:03:34.365Z,64.62
2023-05-18T06:04:32.002Z,66.67
2023-05-18T06:05:32.205Z,66.75
2023-05-18T06:06:31.865Z,66.03
2023-05-18T06:07:31.989Z,66.85
2023-05-18T06:08:31.847Z,66.75
2023-05-18T06:09:31.868Z,66.75
2023-05-18T06:10:31.784Z,67.67
2023-05-18T06:11:31.801Z,67.16
2023-05-18T06:12:31.910Z,67.97
2023-05-18T06:13:32.510Z,66.85
2023-05-18T06:14:31.744Z,64.29
2023-05-18T06:15:31.992Z,65.93
2023-05-18T06:16:31.754Z,65.11
2023-05-18T06:17:31.692Z,65.34
2023-05-18T06:18:31.705Z,65.45
2023-05-18T06:19:31.678Z,65.45
2023-05-18T06:20:31.641Z,65.96
2023-05-18T06:21:31.618Z,65.14
2023-05-18T06:22:31.630Z,65.14
2023-05-18T06:23:31.587Z,65.75
2023-05-18T06:24:31.589Z,64.32
2023-05-18T06:25:32.807Z,63.60
2023-05-18T06:26:31.548Z,64.18
2023-05-18T06:27:31.533Z,65.93
2023-05-18T06:28:32.536Z,65.39
2023-05-18T06:29:31.551Z,67.02
2023-05-18T06:30:31.511Z,65.97
2023-05-18T06:31:31.553Z,66.69
2023-05-18T06:32:31.589Z,65.73
2023-05-18T06:33:31.480Z,65.33
2023-05-18T06:34:31.453Z,64.68
2023-05-18T06:35:31.628Z,64.96
2023-05-18T06:36:31.518Z,62.71
2023-05-18T06:37:31.437Z,62.81
2023-05-18T06:38:31.465Z,63.29
2023-05-18T06:39:31.373Z,62.99
2023-05-18T06:40:31.354Z,63.57
2023-05-18T06:41:31.330Z,62.85
2023-05-18T06:42:31.372Z,61.94
2023-05-18T06:43:31.385Z,61.02
2023-05-18T06:44:31.342Z,61.32
2023-05-18T06:45:32.104Z,60.92
2023-05-18T06:46:31.396Z,59.31
2023-05-18T06:47:32.355Z,60.03
2023-05-18T06:48:32.156Z,62.78
2023-05-18T06:49:31.261Z,62.14
2023-05-18T06:50:31.290Z,61.12
2023-05-18T06:51:31.180Z,61.43
2023-05-18T06:52:31.203Z,61.94
2023-05-18T06:53:31.616Z,62.93
2023-05-18T06:54:31.187Z,61.30
2023-05-18T06:55:31.460Z,61.09
2023-05-18T06:56:31.529Z,59.16
2023-05-18T06:57:31.116Z,62.11
2023-05-18T06:58:31.189Z,58.54
2023-05-18T06:59:31.091Z,59.89
2023-05-18T07:00:31.116Z,59.59
2023-05-18T07:01:31.130Z,60.30
2023-05-18T07:02:31.132Z,61.22
2023-05-18T07:03:31.256Z,60.64
2023-05-18T07:04:31.125Z,62.27
2023-05-18T07:05:31.276Z,61.25
2023-05-18T07:06:31.156Z,60.44
2023-05-18T07:07:31.200Z,62.78
2023-05-18T07:08:31.021Z,61.97
2023-05-18T07:09:31.698Z,61.15
2023-05-18T07:10:31.057Z,62.07
2023-05-18T07:11:31.709Z,61.76
2023-05-18T07:12:30.926Z,58.70
2023-05-18T07:13:30.997Z,59.72
2023-05-18T07:14:30.920Z,61.35
2023-05-18T07:15:31.066Z,60.51
2023-05-18T07:16:30.979Z,59.52
2023-05-18T07:17:30.876Z,59.49
2023-05-18T07:18:30.842Z,61.53
2023-05-18T07:19:30.904Z,59.08
2023-05-18T07:20:30.847Z,61.30
2023-05-18T07:21:30.816Z,58.85
2023-05-18T07:22:30.791Z,59.26
2023-05-18T07:23:30.890Z,59.97
2023-05-18T07:24:30.750Z,58.72
2023-05-18T07:25:30.919Z,61.78
2023-05-18T07:26:30.774Z,60.55
2023-05-18T07:27:30.717Z,59.81
2023-05-18T07:28:30.756Z,58.72
2023-05-18T07:29:31.147Z,59.53
2023-05-18T07:30:30.682Z,59.23
2023-05-18T07:31:31.788Z,59.23
2023-05-18T07:32:30.754Z,59.94
2023-05-18T07:33:31.447Z,57.93
2023-05-18T07:34:30.636Z,58.44
2023-05-18T07:35:30.789Z,59.97
2023-05-18T07:36:30.582Z,60.07
2023-05-18T07:37:31.553Z,59.39
2023-05-18T07:38:30.630Z,61.40
2023-05-18T07:39:31.366Z,57.75
2023-05-18T07:40:31.607Z,59.28
2023-05-18T07:41:31.415Z,60.07
2023-05-18T07:42:30.530Z,60.12
2023-05-18T07:43:31.510Z,59.58
2023-05-18T07:44:31.392Z,59.05
2023-05-18T07:45:31.725Z,56.88
2023-05-18T07:46:30.504Z,56.04
2023-05-18T07:47:30.545Z,57.10
2023-05-18T07:48:31.259Z,56.31
2023-05-18T07:49:31.509Z,56.18
2023-05-18T07:50:30.978Z,51.63
2023-05-18T07:51:31.259Z,49.11
2023-05-18T07:52:31.172Z,46.65
2023-05-18T07:53:31.330Z,45.98
2023-05-18T07:54:31.309Z,45.95
2023-05-18T07:55:30.597Z,45.25
2023-05-18T07:56:31.262Z,45.21
2023-05-18T07:57:31.193Z,43.70
2023-05-18T07:58:30.344Z,45.03
2023-05-18T07:59:31.227Z,44.09
2023-05-18T08:00:31.139Z,43.71
2023-05-18T08:01:31.054Z,43.52
2023-05-18T08:02:32.849Z,44.05
2023-05-18T08:03:31.362Z,47.23
2023-05-18T08:04:31.067Z,43.38
2023-05-18T08:05:31.508Z,45.17
2023-05-18T08:06:31.067Z,45.15
2023-05-18T08:07:30.998Z,45.39
2023-05-18T08:08:31.135Z,46.50
2023-05-18T08:09:30.373Z,44.47
2023-05-18T08:10:30.418Z,46.46
2023-05-18T08:11:30.464Z,43.08
2023-05-18T08:12:31.221Z,45.60
2023-05-18T08:13:30.844Z,43.55
2023-05-18T08:14:30.125Z,41.02
2023-05-18T08:15:30.290Z,40.78
2023-05-18T08:16:30.078Z,40.28
2023-05-18T08:17:31.115Z,38.66
2023-05-18T08:18:30.971Z,38.24
2023-05-18T08:19:30.637Z,37.66
2023-05-18T08:20:30.044Z,40.56
2023-05-18T08:21:30.216Z,40.28
2023-05-18T08:22:30.168Z,38.96
2023-05-18T08:23:30.191Z,37.41
2023-05-18T08:24:29.986Z,40.53
2023-05-18T08:25:31.047Z,42.38
2023-05-18T08:26:29.993Z,42.32
2023-05-18T08:27:30.071Z,40.43
2023-05-18T08:28:29.849Z,41.91
2023-05-18T08:29:29.990Z,38.18
2023-05-18T08:30:30.091Z,40.05
2023-05-18T08:31:29.948Z,41.83
2023-05-18T08:32:30.041Z,39.51
2023-05-18T08:33:29.874Z,40.52
2023-05-18T08:34:29.870Z,39.29
2023-05-18T08:35:30.843Z,39.39
2023-05-18T08:36:30.038Z,38.46
2023-05-18T08:37:29.831Z,37.48
2023-05-18T08:38:29.779Z,36.51
2023-05-18T08:39:29.957Z,36.81
2023-05-18T08:40:29.875Z,39.72
2023-05-18T08:41:29.788Z,38.42
2023-05-18T08:42:41.624Z,40.22
2023-05-18T08:43:30.718Z,41.31
2023-05-18T08:44:30.496Z,39.51
2023-05-18T08:45:30.940Z,39.39
2023-05-18T08:46:30.604Z,37.83
2023-05-18T08:47:29.637Z,39.43
2023-05-18T08:48:29.726Z,39.81
2023-05-18T08:49:29.790Z,37.40
2023-05-18T08:50:29.798Z,37.58
2023-05-18T08:51:29.784Z,37.48
2023-05-18T08:52:29.851Z,38.28
2023-05-18T08:53:29.796Z,36.91
2023-05-18T08:54:30.087Z,37.21
2023-05-18T08:55:29.794Z,38.81
2023-05-18T08:56:29.788Z,37.99
2023-05-18T08:57:29.817Z,39.20
2023-05-18T08:58:29.640Z,37.31
2023-05-18T08:59:29.556Z,39.13
2023-05-18T09:00:30.562Z,38.20
2023-05-18T09:01:29.702Z,39.54
2023-05-18T09:02:29.566Z,41.96
2023-05-18T09:03:29.409Z,40.59
2023-05-18T09:04:29.421Z,44.04
2023-05-18T09:05:29.743Z,42.47
2023-05-18T09:06:29.402Z,46.06
2023-05-18T09:07:29.423Z,46.59
2023-05-18T09:08:29.366Z,45.50
2023-05-18T09:09:29.339Z,45.95
2023-05-18T09:10:30.285Z,46.68
2023-05-18T09:11:29.353Z,49.21
2023-05-18T09:12:29.417Z,49.30
2023-05-18T09:13:29.272Z,47.79
2023-05-18T09:14:29.280Z,49.35
2023-05-18T09:15:29.497Z,48.32
2023-05-18T09:16:29.260Z,47.72
2023-05-18T09:17:29.351Z,45.34
2023-05-18T09:18:29.297Z,45.98
2023-05-18T09:19:29.254Z,45.73
2023-05-18T09:20:29.253Z,43.76
2023-05-18T09:21:29.347Z,39.12
2023-05-18T09:22:29.182Z,40.50
2023-05-18T09:23:29.229Z,44.47
2023-05-18T09:24:29.159Z,45.72
2023-05-18T09:25:29.448Z,44.75
2023-05-18T09:26:29.253Z,45.81
2023-05-18T09:27:29.235Z,45.56
2023-05-18T09:28:29.372Z,44.51
2023-05-18T09:29:31.145Z,44.47
2023-05-18T09:30:29.279Z,44.63
2023-05-18T09:31:29.438Z,43.68
2023-05-18T09:32:29.149Z,43.34
2023-05-18T09:33:29.461Z,41.31
2023-05-18T09:34:29.582Z,41.77
2023-05-18T09:35:29.669Z,41.75
2023-05-18T09:36:29.376Z,41.71
2023-05-18T09:37:28.977Z,41.19
2023-05-18T09:38:28.991Z,37.98
2023-05-18T09:39:28.978Z,38.28
2023-05-18T09:40:28.999Z,39.18
2023-05-18T09:41:29.046Z,38.70
2023-05-18T09:42:28.876Z,38.91
2023-05-18T09:43:29.540Z,36.79
2023-05-18T09:44:28.896Z,37.08
2023-05-18T09:45:29.120Z,38.98
2023-05-18T09:46:28.958Z,38.18
2023-05-18T09:47:28.873Z,36.98
2023-05-18T09:48:28.789Z,37.38
2023-05-18T09:49:28.773Z,38.56
2023-05-18T09:50:28.817Z,38.76
2023-05-18T09:51:28.814Z,37.77
2023-05-18T09:52:28.763Z,38.18
2023-05-18T09:53:28.728Z,38.20
2023-05-18T09:54:29.497Z,38.40
2023-05-18T09:55:28.975Z,40.09
2023-05-18T09:56:28.775Z,40.50
2023-05-18T09:57:28.742Z,40.00
2023-05-18T09:58:28.742Z,39.07
2023-05-18T09:59:28.684Z,41.19
2023-05-18T10:00:28.657Z,38.87
2023-05-18T10:01:28.682Z,39.65
2023-05-18T10:02:28.775Z,38.24
2023-05-18T10:03:28.694Z,40.81
2023-05-18T10:04:28.632Z,37.40
2023-05-18T10:05:28.860Z,36.59
2023-05-18T10:06:28.585Z,38.67
2023-05-18T10:07:28.654Z,36.85
2023-05-18T10:08:28.701Z,35.74
2023-05-18T10:09:28.548Z,36.24
2023-05-18T10:10:28.656Z,38.05
2023-05-18T10:11:28.522Z,36.85
2023-05-18T10:12:28.509Z,34.38
2023-05-18T10:13:28.507Z,34.50
2023-05-18T10:14:31.261Z,34.63
2023-05-18T10:15:29.660Z,37.42
2023-05-18T10:16:28.556Z,38.12
2023-05-18T10:17:28.522Z,38.74
2023-05-18T10:18:28.539Z,39.02
2023-05-18T10:19:28.600Z,37.82
2023-05-18T10:20:28.511Z,40.08
2023-05-18T10:21:29.548Z,38.86
2023-05-18T10:22:28.508Z,36.87
2023-05-18T10:23:28.468Z,37.38
2023-05-18T10:24:28.389Z,38.40
2023-05-18T10:25:28.377Z,38.72
2023-05-18T10:26:28.353Z,37.94
2023-05-18T10:27:28.367Z,38.36
2023-05-18T10:28:28.292Z,37.88
2023-05-18T10:29:28.660Z,41.09
2023-05-18T10:30:28.390Z,41.27
2023-05-18T10:31:28.621Z,39.54
2023-05-18T10:32:28.364Z,38.14
2023-05-18T10:33:29.514Z,39.36
2023-05-18T10:34:28.227Z,38.40
2023-05-18T10:35:28.292Z,38.61
2023-05-18T10:36:28.234Z,40.31
2023-05-18T10:37:28.174Z,40.30
2023-05-18T10:38:28.197Z,41.09
2023-05-18T10:39:28.199Z,38.78
2023-05-18T10:40:28.274Z,36.84
2023-05-18T10:41:28.566Z,38.02
2023-05-18T10:42:28.650Z,37.51
2023-05-18T10:43:28.423Z,37.23
2023-05-18T10:44:28.147Z,37.52
2023-05-18T10:45:28.104Z,37.82
2023-05-18T10:46:28.494Z,38.04
2023-05-18T10:47:28.387Z,37.72
2023-05-18T10:48:28.072Z,37.12
2023-05-18T10:49:28.024Z,37.72
2023-05-18T10:50:28.012Z,39.70
2023-05-18T10:51:28.085Z,36.09
2023-05-18T10:52:28.032Z,36.01
2023-05-18T10:53:27.978Z,38.29
2023-05-18T10:54:27.978Z,36.39
2023-05-18T10:55:27.945Z,38.17
2023-05-18T10:56:27.931Z,37.65
2023-05-18T10:57:27.928Z,35.29
2023-05-18T10:58:27.950Z,35.08
2023-05-18T10:59:27.959Z,34.89
2023-05-18T11:00:27.900Z,36.07
2023-05-18T11:01:27.998Z,36.46
2023-05-18T11:02:28.009Z,37.05
2023-05-18T11:03:27.875Z,35.52
2023-05-18T11:04:27.841Z,33.62
2023-05-18T11:05:27.822Z,33.02
2023-05-18T11:06:27.819Z,33.07
2023-05-18T11:07:27.775Z,35.66
2023-05-18T11:08:27.811Z,35.22
2023-05-18T11:09:27.915Z,37.43
2023-05-18T11:10:27.787Z,37.32
2023-05-18T11:11:27.793Z,37.02
2023-05-18T11:12:27.775Z,35.84
2023-05-18T11:13:27.729Z,35.56
2023-05-18T11:14:27.722Z,36.14
2023-05-18T11:15:28.569Z,36.07
2023-05-18T11:16:29.295Z,35.99
2023-05-18T11:17:27.737Z,37.72
2023-05-18T11:18:27.669Z,38.92
2023-05-18T11:19:27.674Z,37.82
2023-05-18T11:20:27.628Z,38.94
2023-05-18T11:21:27.699Z,38.56
2023-05-18T11:22:29.874Z,38.85
2023-05-18T11:23:27.557Z,39.54
2023-05-18T11:24:28.487Z,39.52
2023-05-18T11:25:27.730Z,39.78
2023-05-18T11:26:27.545Z,37.68
2023-05-18T11:27:28.078Z,38.25
2023-05-18T11:28:27.536Z,37.87
2023-05-18T11:29:28.506Z,37.77
2023-05-18T11:30:28.518Z,39.74
2023-05-18T11:31:27.510Z,39.84
2023-05-18T11:32:30.568Z,38.25
2023-05-18T11:33:27.479Z,37.35
2023-05-18T11:34:27.422Z,37.35
2023-05-18T11:35:28.471Z,38.13
2023-05-18T11:36:27.443Z,36.74
2023-05-18T11:37:27.378Z,38.82
2023-05-18T11:38:27.481Z,35.82
2023-05-18T11:39:28.338Z,37.71
2023-05-18T11:40:27.381Z,36.30
2023-05-18T11:41:27.339Z,34.81
2023-05-18T11:42:28.258Z,36.58
2023-05-18T11:43:27.453Z,35.79
2023-05-18T11:44:28.329Z,36.47
2023-05-18T11:45:28.133Z,34.08
2023-05-18T11:46:27.396Z,35.16
2023-05-18T11:47:27.304Z,35.94
2023-05-18T11:48:27.417Z,34.94
2023-05-18T11:49:27.270Z,34.25
2023-05-18T11:50:28.666Z,36.11
2023-05-18T11:51:27.249Z,34.43
2023-05-18T11:52:27.247Z,36.22
2023-05-18T11:53:27.889Z,35.71
2023-05-18T11:54:27.353Z,34.40
2023-05-18T11:55:27.261Z,34.06
2023-05-18T11:56:27.200Z,35.55
2023-05-18T11:57:27.181Z,35.04
2023-05-18T11:58:28.026Z,33.94
2023-05-18T11:59:27.571Z,30.85
2023-05-18T12:00:27.270Z,33.24
2023-05-18T12:01:27.130Z,33.28
2023-05-18T12:02:27.248Z,33.50
2023-05-18T12:03:27.644Z,34.30
2023-05-18T12:04:27.203Z,35.19
2023-05-18T12:05:27.923Z,35.09
2023-05-18T12:06:27.989Z,35.09
2023-05-18T12:07:27.043Z,35.39
2023-05-18T12:08:27.803Z,33.09
2023-05-18T12:09:27.047Z,34.46
2023-05-18T12:10:27.510Z,33.28
2023-05-18T12:11:27.499Z,32.07
2023-05-18T12:12:27.563Z,30.77
2023-05-18T12:13:27.057Z,32.55
2023-05-18T12:14:27.286Z,34.22
2023-05-18T12:15:26.924Z,32.71
2023-05-18T12:16:26.977Z,31.71
2023-05-18T12:17:27.936Z,33.08
2023-05-18T12:18:27.863Z,31.50
2023-05-18T12:19:27.884Z,32.29
2023-05-18T12:20:27.718Z,31.09
2023-05-18T12:21:27.220Z,31.17
2023-05-18T12:22:27.882Z,29.00
2023-05-18T12:23:26.813Z,29.50
2023-05-18T12:24:27.829Z,31.09
2023-05-18T12:25:27.802Z,28.93
2023-05-18T12:26:26.812Z,30.21
2023-05-18T12:27:26.773Z,30.64
2023-05-18T12:28:26.862Z,29.47
2023-05-18T12:29:27.605Z,31.94
2023-05-18T12:30:26.767Z,29.86
2023-05-18T12:31:26.937Z,31.65
2023-05-18T12:32:26.761Z,30.65
2023-05-18T12:33:26.756Z,32.64
2023-05-18T12:34:26.846Z,31.53
2023-05-18T12:35:26.712Z,32.21
2023-05-18T12:36:26.703Z,32.31
2023-05-18T12:37:34.195Z,32.28
2023-05-18T12:38:27.617Z,31.37
2023-05-18T12:39:28.591Z,27.91
2023-05-18T12:40:26.806Z,31.83
2023-05-18T12:41:26.642Z,30.16
2023-05-18T12:42:27.175Z,28.99
2023-05-18T12:43:26.992Z,29.60
2023-05-18T12:44:26.735Z,28.82
2023-05-18T12:45:26.772Z,29.24
2023-05-18T12:46:27.052Z,28.66
2023-05-18T12:47:27.444Z,28.56
2023-05-18T12:48:26.932Z,28.41
2023-05-18T12:49:26.777Z,30.18
2023-05-18T12:50:26.675Z,29.58
2023-05-18T12:51:26.499Z,30.55
2023-05-18T12:52:27.934Z,31.71
2023-05-18T12:53:26.517Z,29.85
2023-05-18T12:54:26.464Z,29.85
2023-05-18T12:55:26.432Z,31.05
2023-05-18T12:56:27.090Z,30.34
2023-05-18T12:57:26.847Z,30.41
2023-05-18T12:58:28.162Z,28.92
2023-05-18T12:59:26.638Z,29.69
2023-05-18T13:00:26.422Z,30.17
2023-05-18T13:01:27.691Z,28.33
2023-05-18T13:02:26.497Z,30.41
2023-05-18T13:03:26.798Z,33.25
2023-05-18T13:04:31.328Z,27.82
2023-05-18T13:05:26.683Z,29.88
2023-05-18T13:06:28.011Z,29.57
2023-05-18T13:07:27.078Z,27.81
2023-05-18T13:08:28.431Z,28.10
2023-05-18T13:32:46.372Z,27.36
2023-05-18T13:33:43.646Z,28.85
2023-05-18T13:34:43.661Z,31.10
2023-05-18T13:35:43.646Z,29.41
2023-05-18T13:36:43.494Z,28.72
2023-05-18T13:37:43.461Z,27.44
2023-05-18T13:38:43.544Z,30.30
2023-05-18T13:39:43.521Z,29.92
2023-05-18T13:40:43.516Z,29.82
2023-05-18T13:41:43.481Z,31.81
2023-05-18T13:42:43.467Z,30.73
2023-05-18T13:43:43.737Z,30.23
2023-05-18T13:44:43.546Z,31.81
2023-05-18T13:45:43.640Z,30.04
2023-05-18T13:46:43.493Z,29.52
2023-05-18T13:47:43.435Z,31.19
2023-05-18T13:48:43.376Z,29.88
2023-05-18T13:49:43.452Z,31.95
2023-05-18T13:50:43.428Z,29.25
2023-05-18T13:51:43.316Z,28.86
2023-05-18T13:52:43.294Z,28.20
2023-05-18T13:53:43.268Z,29.38
2023-05-18T13:54:43.522Z,29.78
2023-05-18T13:55:43.345Z,30.66
2023-05-18T13:56:43.434Z,30.86
2023-05-18T13:57:43.241Z,29.30
2023-05-18T13:58:43.259Z,31.38
2023-05-18T13:59:43.235Z,29.92
2023-05-18T14:00:43.182Z,31.02
2023-05-18T14:01:43.245Z,30.21
2023-05-18T14:02:43.218Z,32.59
2023-05-18T14:03:43.215Z,33.26
2023-05-18T14:04:43.121Z,31.09
2023-05-18T14:05:43.280Z,28.45
2023-05-18T14:06:43.081Z,30.52
2023-05-18T14:07:43.089Z,29.85
2023-05-18T14:08:43.185Z,30.24
2023-05-18T14:09:43.138Z,29.27
2023-05-18T14:10:43.084Z,31.65
2023-05-18T14:11:43.052Z,31.32
2023-05-18T14:12:44.048Z,31.10
2023-05-18T14:13:43.061Z,32.47
2023-05-18T14:14:43.021Z,29.99
2023-05-18T14:15:44.035Z,29.48
2023-05-18T14:16:43.117Z,29.88
2023-05-18T14:17:43.180Z,27.82
2023-05-18T14:18:43.041Z,29.13
2023-05-18T14:19:43.170Z,29.88
2023-05-18T14:20:42.918Z,30.21
2023-05-18T14:21:42.903Z,30.10
2023-05-18T14:22:42.952Z,30.41
2023-05-18T14:23:43.012Z,30.32
2023-05-18T14:24:42.919Z,32.67
2023-05-18T14:25:42.936Z,30.91
2023-05-18T14:26:42.943Z,30.30
2023-05-18T14:27:42.813Z,30.98
2023-05-18T14:28:43.121Z,32.14
2023-05-18T14:29:42.873Z,32.01
2023-05-18T14:30:42.820Z,29.05
2023-05-18T14:31:42.799Z,30.11
2023-05-18T14:32:42.980Z,29.41
2023-05-18T14:33:42.764Z,29.60
2023-05-18T14:34:42.737Z,30.85
2023-05-18T14:35:42.777Z,29.16
2023-05-18T14:36:42.756Z,28.74
2023-05-18T14:37:42.704Z,26.88
2023-05-18T14:38:42.700Z,28.54
2023-05-18T14:39:42.690Z,28.44
2023-05-18T14:40:42.724Z,27.39
2023-05-18T14:41:42.653Z,27.58
2023-05-18T14:42:42.613Z,29.16
2023-05-18T14:43:42.599Z,28.26
2023-05-18T14:44:42.763Z,28.95
2023-05-18T14:45:43.601Z,26.51
2023-05-18T14:46:42.915Z,27.51
2023-05-18T14:47:42.644Z,28.47
2023-05-18T14:48:42.591Z,28.96
2023-05-18T14:49:42.538Z,29.06
2023-05-18T14:50:42.546Z,29.44
2023-05-18T14:51:42.568Z,28.16
2023-05-18T14:52:42.533Z,28.05
2023-05-18T14:53:42.873Z,28.64
2023-05-18T14:54:42.490Z,27.66
2023-05-18T14:55:42.465Z,25.71
2023-05-18T14:56:42.485Z,26.72
2023-05-18T14:57:42.429Z,27.72
2023-05-18T14:58:42.405Z,28.35
2023-05-18T14:59:42.427Z,28.47
2023-05-18T15:00:42.488Z,29.48
2023-05-18T15:01:42.440Z,30.41
2023-05-18T15:02:42.497Z,29.85
2023-05-18T15:03:42.469Z,31.72
2023-05-18T15:04:42.360Z,31.17
2023-05-18T15:05:42.315Z,32.09
2023-05-18T15:06:42.496Z,32.89
2023-05-18T15:07:42.462Z,30.42
2023-05-18T15:08:42.317Z,31.70
2023-05-18T15:09:42.821Z,31.37
2023-05-18T15:10:42.255Z,31.32
2023-05-18T15:11:42.250Z,30.70
2023-05-18T15:12:42.245Z,30.49
2023-05-18T15:13:42.264Z,30.70
2023-05-18T15:14:42.197Z,30.21
2023-05-18T15:15:42.182Z,31.11
2023-05-18T15:16:42.951Z,31.59
2023-05-18T15:17:42.244Z,32.39
2023-05-18T15:18:42.453Z,30.10
2023-05-18T15:19:42.161Z,31.38
2023-05-18T15:20:42.112Z,31.97
2023-05-18T15:21:42.201Z,32.06
2023-05-18T15:22:42.090Z,29.69
2023-05-18T15:23:42.121Z,30.73
2023-05-18T15:24:42.046Z,30.86
2023-05-18T15:25:42.055Z,34.15
2023-05-18T15:26:42.084Z,34.31
2023-05-18T15:27:42.043Z,33.80
2023-05-18T15:28:42.004Z,31.31
2023-05-18T15:29:42.304Z,32.10
2023-05-18T15:30:41.981Z,31.60
2023-05-18T15:31:42.076Z,31.92
2023-05-18T15:32:42.031Z,31.26
2023-05-18T15:33:42.566Z,32.56
2023-05-18T15:34:41.943Z,32.97
2023-05-18T15:35:41.922Z,34.36
2023-05-18T15:36:41.874Z,34.46
2023-05-18T15:37:41.965Z,34.66
2023-05-18T15:38:41.915Z,33.87
2023-05-18T15:39:41.960Z,33.12
2023-05-18T15:40:41.845Z,34.92
2023-05-18T15:41:41.852Z,35.92
2023-05-18T15:42:41.842Z,34.61
2023-05-18T15:43:41.804Z,33.80
2023-05-18T15:44:41.845Z,32.69
2023-05-18T15:45:42.416Z,33.29
2023-05-18T15:46:41.822Z,35.10
2023-05-18T15:47:41.791Z,35.59
2023-05-18T15:48:41.763Z,33.56
2023-05-18T15:49:41.720Z,33.81
2023-05-18T15:50:41.940Z,35.21
2023-05-18T15:51:41.835Z,36.41
2023-05-18T15:52:41.661Z,36.31
2023-05-18T15:53:41.665Z,36.22
2023-05-18T15:54:41.650Z,37.62
2023-05-18T15:55:41.689Z,38.31
2023-05-18T15:56:41.642Z,37.82
2023-05-18T15:57:41.610Z,37.44
2023-05-18T15:58:41.603Z,37.96
2023-05-18T15:59:41.560Z,39.04
2023-05-18T16:00:41.581Z,38.44
2023-05-18T16:01:41.877Z,38.84
2023-05-18T16:02:41.659Z,37.34
2023-05-18T16:03:41.771Z,36.76
2023-05-18T16:04:41.488Z,37.76
2023-05-18T16:05:41.555Z,39.43
2023-05-18T16:06:41.619Z,38.22
2023-05-18T16:07:41.595Z,39.20
2023-05-18T16:08:41.500Z,39.02
2023-05-18T16:09:41.470Z,37.74
2023-05-18T16:10:41.435Z,39.02
2023-05-18T16:11:41.432Z,38.31
2023-05-18T16:12:41.703Z,38.50
2023-05-18T16:13:41.404Z,37.52
2023-05-18T16:14:41.375Z,39.80
2023-05-18T16:15:41.405Z,38.80
2023-05-18T16:16:41.425Z,38.78
2023-05-18T16:17:41.416Z,39.06
2023-05-18T16:18:41.570Z,38.25
2023-05-18T16:19:41.345Z,37.23
2023-05-18T16:20:41.346Z,36.18
2023-05-18T16:21:41.640Z,36.07
2023-05-18T16:22:41.332Z,38.37
2023-05-18T16:23:41.427Z,37.88
2023-05-18T16:24:41.244Z,37.47
2023-05-18T16:25:41.235Z,35.58
2023-05-18T16:26:41.208Z,36.87
2023-05-18T16:27:41.199Z,37.37
2023-05-18T16:28:41.185Z,37.87
2023-05-18T16:29:41.235Z,37.57
2023-05-18T16:30:41.666Z,36.19
2023-05-18T16:31:41.210Z,36.44
2023-05-18T16:32:41.127Z,37.36
2023-05-18T16:33:41.114Z,39.07
2023-05-18T16:34:41.136Z,38.59
2023-05-18T16:35:41.114Z,39.61
2023-05-18T16:36:41.081Z,38.73
2023-05-18T16:37:41.102Z,38.57
2023-05-18T16:38:41.030Z,40.81
2023-05-18T16:39:41.062Z,40.55
2023-05-18T16:40:41.056Z,42.49
2023-05-18T16:41:41.029Z,44.32
2023-05-18T16:42:40.984Z,44.93
2023-05-18T16:43:41.023Z,43.84
2023-05-18T16:44:40.968Z,44.27
2023-05-18T16:45:40.935Z,45.09
2023-05-18T16:46:41.032Z,43.79
2023-05-18T16:47:40.976Z,47.63
2023-05-18T16:48:41.071Z,46.22
2023-05-18T16:49:40.949Z,45.84
2023-05-18T16:50:40.932Z,45.86
2023-05-18T16:51:40.838Z,46.59
2023-05-18T16:52:40.887Z,48.43
2023-05-18T16:53:41.357Z,49.64
2023-05-18T16:54:40.898Z,48.83
2023-05-18T16:55:40.814Z,51.28
2023-05-18T16:56:40.897Z,50.37
2023-05-18T16:57:40.757Z,50.67
2023-05-18T16:58:40.921Z,51.30
2023-05-18T16:59:40.739Z,50.90
2023-05-18T17:00:40.785Z,52.01
2023-05-18T17:01:40.763Z,50.82
2023-05-18T17:02:40.857Z,50.92
2023-05-18T17:03:40.739Z,52.36
2023-05-18T17:04:40.688Z,53.47
2023-05-18T17:05:40.670Z,52.76
2023-05-18T17:06:40.891Z,52.97
2023-05-18T17:07:40.620Z,51.07
2023-05-18T17:08:40.776Z,50.97
2023-05-18T17:09:40.636Z,53.09
2023-05-18T17:10:41.168Z,50.99
2023-05-18T17:11:40.688Z,52.21
2023-05-18T17:12:40.654Z,53.85
2023-05-18T17:13:40.550Z,51.32
2023-05-18T17:14:40.550Z,51.53
2023-05-18T17:15:40.604Z,52.44
2023-05-18T17:16:40.538Z,52.54
2023-05-18T17:17:41.971Z,52.86
2023-05-18T17:18:40.512Z,52.97
2023-05-18T17:19:40.511Z,53.78
2023-05-18T17:20:40.479Z,53.70
2023-05-18T17:21:40.876Z,54.31
2023-05-18T17:22:40.689Z,53.09
2023-05-18T17:23:40.435Z,52.61
2023-05-18T17:24:40.734Z,53.12
2023-05-18T17:25:40.448Z,53.32
2023-05-18T17:26:40.384Z,54.03
2023-05-18T17:27:40.368Z,54.13
2023-05-18T17:28:40.388Z,53.83
2023-05-18T17:29:40.319Z,54.57
2023-05-18T17:30:40.409Z,54.26
2023-05-18T17:31:40.396Z,55.07
2023-05-18T17:32:40.366Z,55.98
2023-05-18T17:33:40.306Z,57.10
2023-05-18T17:34:40.291Z,56.90
2023-05-18T17:35:40.263Z,57.53
2023-05-18T17:36:40.276Z,58.24
2023-05-18T17:37:40.244Z,59.16
2023-05-18T17:38:40.218Z,58.14
2023-05-18T17:39:40.266Z,57.84
2023-05-18T17:40:40.199Z,57.56
2023-05-18T17:41:40.331Z,57.66
2023-05-18T17:42:40.172Z,57.66
2023-05-18T17:43:40.350Z,58.47
2023-05-18T17:44:40.150Z,58.17
2023-05-18T17:45:40.115Z,59.18
2023-05-18T17:46:40.232Z,58.50
2023-05-18T17:47:40.102Z,58.80
2023-05-18T17:48:40.095Z,59.01
2023-05-18T17:49:40.150Z,59.41
2023-05-18T17:50:40.119Z,58.20
2023-05-18T17:51:40.562Z,58.60
2023-05-18T17:52:40.009Z,58.40
2023-05-18T17:53:40.075Z,58.83
2023-05-18T17:54:39.990Z,58.42
2023-05-18T17:55:39.998Z,59.03
2023-05-18T17:56:39.985Z,60.15
2023-05-18T17:57:39.927Z,59.84
2023-05-18T17:58:39.945Z,60.15
2023-05-18T17:59:39.920Z,60.36
2023-05-18T18:00:39.991Z,60.66
2023-05-18T18:01:39.977Z,61.37
2023-05-18T18:02:39.915Z,61.60
2023-05-18T18:03:39.885Z,61.30
2023-05-18T18:04:39.912Z,61.30
2023-05-18T18:05:40.248Z,62.82
2023-05-18T18:06:39.853Z,61.81
2023-05-18T18:07:39.821Z,61.51
2023-05-18T18:08:39.950Z,61.30
2023-05-18T18:09:39.764Z,62.11
2023-05-18T18:10:39.873Z,62.41
2023-05-18T18:11:40.174Z,61.60
2023-05-18T18:12:39.746Z,61.91
2023-05-18T18:13:39.814Z,62.35
2023-05-18T18:14:39.826Z,62.85
2023-05-18T18:15:39.688Z,62.75
2023-05-18T18:16:39.842Z,62.85
2023-05-18T18:17:39.722Z,63.36
2023-05-18T18:18:39.668Z,63.57
2023-05-18T18:19:39.662Z,64.58
2023-05-18T18:20:39.713Z,63.77
2023-05-18T18:21:39.753Z,64.99
2023-05-18T18:22:39.638Z,64.58
2023-05-18T18:23:39.657Z,64.81
2023-05-18T18:24:39.587Z,66.04
2023-05-18T18:25:39.534Z,65.94
2023-05-18T18:26:39.566Z,66.44
2023-05-18T18:27:39.494Z,66.35
2023-05-18T18:28:39.550Z,66.55
2023-05-18T18:29:39.554Z,67.26
2023-05-18T18:30:39.522Z,66.14
2023-05-18T18:31:39.545Z,65.83
2023-05-18T18:32:39.471Z,65.77
2023-05-18T18:33:39.457Z,65.05
2023-05-18T18:34:39.662Z,64.84
2023-05-18T18:35:39.507Z,64.44
2023-05-18T18:36:39.516Z,64.34
2023-05-18T18:37:39.395Z,64.03
2023-05-18T18:38:39.354Z,64.95
2023-05-18T18:39:39.343Z,64.54
2023-05-18T18:40:39.444Z,64.95
2023-05-18T18:41:39.351Z,65.16
2023-05-18T18:42:39.361Z,65.77
2023-05-18T18:43:39.336Z,65.49
2023-05-18T18:44:39.463Z,66.00
2023-05-18T18:45:39.323Z,65.80
2023-05-18T18:46:39.308Z,66.41
2023-05-18T18:47:39.396Z,66.00
2023-05-18T18:48:39.275Z,66.85
2023-05-18T18:49:39.246Z,66.64
2023-05-18T18:50:39.244Z,67.15
2023-05-18T18:51:39.368Z,67.25
2023-05-18T18:52:39.177Z,67.49
2023-05-18T18:53:39.183Z,67.69
2023-05-18T18:54:39.231Z,67.69
2023-05-18T18:55:39.113Z,68.30
2023-05-18T18:56:39.173Z,68.10
2023-05-18T18:57:39.103Z,68.54
2023-05-18T18:58:39.313Z,68.23
2023-05-18T18:59:39.101Z,69.15
2023-05-18T19:00:39.039Z,69.46
2023-05-18T19:01:39.123Z,69.05
2023-05-18T19:02:39.125Z,69.35
2023-05-18T19:03:39.058Z,68.74
2023-05-18T19:04:39.082Z,69.38
2023-05-18T19:05:40.034Z,69.90
2023-05-18T19:06:38.976Z,69.49
2023-05-18T19:07:39.093Z,70.61
2023-05-18T19:08:38.974Z,70.10
2023-05-18T19:09:38.954Z,69.62
2023-05-18T19:10:39.056Z,70.75
2023-05-18T19:11:38.886Z,70.85
2023-05-18T19:12:38.884Z,70.95